Time;durP1;ratioP1;P1;durP2;ratioP2;P2;SDS_P1;SDS_P2;PMS_P1;PMS_P2;Temp;Humidity;BMP_temperature;BMP_pressure;BME280_temperature;BME280_humidity;BME280_pressure;Samples;Min_cycle;Max_cycle;Signal;HPM_P1;HPM_P2
2021/12/29 00:00:21;;;;;;;6.63;3.78;;;6.40;99.90;;;;;;5049365;28;20049;-78
2021/12/29 00:02:47;;;;;;;8.52;3.70;;;6.30;99.90;;;;;;5037564;28;20121;-79
2021/12/29 00:05:13;;;;;;;;;;;6.20;99.90;;;;;;5044809;28;20045;-78
2021/12/29 00:07:39;;;;;;;5.28;4.03;;;6.20;99.90;;;;;;5035628;28;19917;-78
2021/12/29 00:10:05;;;;;;;4.50;3.42;;;6.20;99.90;;;;;;5025179;28;20048;-79
2021/12/29 00:12:34;;;;;;;;;;;6.20;99.90;;;;;;5044204;28;20091;-78
2021/12/29 00:15:00;;;;;;;3.50;2.88;;;6.20;99.90;;;;;;5045881;28;20378;-78
2021/12/29 00:17:26;;;;;;;5.65;3.35;;;6.20;99.90;;;;;;5050654;28;20045;-79
2021/12/29 00:19:52;;;;;;;4.07;3.50;;;6.10;99.90;;;;;;5049846;28;20063;-77
2021/12/29 00:22:17;;;;;;;6.97;4.53;;;6.10;99.90;;;;;;5026784;28;20111;-78
2021/12/29 00:24:45;;;;;;;3.72;3.15;;;6.20;99.90;;;;;;5058272;28;20068;-77
2021/12/29 00:27:11;;;;;;;6.25;3.67;;;6.10;99.90;;;;;;5049103;28;20625;-79
2021/12/29 00:29:36;;;;;;;3.72;2.45;;;6.20;99.90;;;;;;5045127;28;20132;-78
2021/12/29 00:32:02;;;;;;;4.93;2.85;;;6.10;99.90;;;;;;5045594;28;20037;-78
2021/12/29 00:34:28;;;;;;;5.90;3.42;;;6.20;99.90;;;;;;5046617;28;20080;-78
2021/12/29 00:36:54;;;;;;;4.35;2.70;;;6.20;99.90;;;;;;5048111;28;20127;-77
2021/12/29 00:39:19;;;;;;;4.78;3.33;;;6.10;99.90;;;;;;5045299;28;20044;-77
2021/12/29 00:41:45;;;;;;;4.57;3.35;;;6.10;99.90;;;;;;5045878;28;20045;-79
2021/12/29 00:44:11;;;;;;;5.63;3.22;;;6.10;99.90;;;;;;5028876;28;20040;-77
2021/12/29 00:46:37;;;;;;;5.80;3.83;;;6.10;99.90;;;;;;5049285;28;20049;-78
2021/12/29 00:49:05;;;;;;;5.57;3.78;;;6.20;99.90;;;;;;5049384;28;20037;-77
2021/12/29 00:51:30;;;;;;;5.15;3.42;;;6.10;99.90;;;;;;5065670;28;20371;-78
2021/12/29 00:53:56;;;;;;;7.22;3.20;;;6.10;99.90;;;;;;5051449;28;20037;-78
2021/12/29 00:56:23;;;;;;;6.10;3.97;;;6.10;99.90;;;;;;5048068;28;20036;-78
2021/12/29 00:58:49;;;;;;;7.95;3.90;;;6.10;99.90;;;;;;5050045;28;20039;-78
2021/12/29 01:01:15;;;;;;;2.85;2.50;;;6.10;99.90;;;;;;5045262;28;20430;-78
2021/12/29 01:03:43;;;;;;;4.25;3.50;;;6.10;99.90;;;;;;5042084;28;20120;-78
2021/12/29 01:06:09;;;;;;;5.30;4.00;;;6.10;99.90;;;;;;5048412;28;20390;-77
2021/12/29 01:08:35;;;;;;;9.10;3.40;;;6.20;99.90;;;;;;5033071;28;20045;-77
2021/12/29 01:11:01;;;;;;;;;;;6.20;99.90;;;;;;5032027;28;20434;-77
2021/12/29 01:13:31;;;;;;;5.43;2.97;;;6.20;99.90;;;;;;5046881;28;19921;-77
2021/12/29 01:16:15;;;;;;;5.75;3.88;;;6.20;99.90;;;;;;5047714;28;20044;-78
2021/12/29 01:18:43;;;;;;;9.27;4.13;;;6.20;99.90;;;;;;5036495;28;20099;-78
2021/12/29 01:21:09;;;;;;;13.25;4.70;;;6.20;99.90;;;;;;5047054;28;20048;-77
2021/12/29 01:23:35;;;;;;;10.68;4.10;;;6.20;99.90;;;;;;5047482;28;20486;-78
2021/12/29 01:26:01;;;;;;;;;;;6.30;99.90;;;;;;5051888;28;20375;-79
2021/12/29 01:28:27;;;;;;;7.32;3.97;;;6.20;99.90;;;;;;5049232;28;19917;-77
2021/12/29 01:30:54;;;;;;;6.38;4.03;;;6.30;99.90;;;;;;5043310;28;20517;-78
2021/12/29 01:33:20;;;;;;;6.70;4.35;;;6.30;99.90;;;;;;5030502;28;20467;-77
2021/12/29 01:35:45;;;;;;;;;;;6.30;99.90;;;;;;5045407;28;20041;-78
2021/12/29 01:38:11;;;;;;;15.15;5.03;;;6.30;99.90;;;;;;5048555;28;19971;-78
2021/12/29 01:40:37;;;;;;;8.07;4.07;;;6.30;99.90;;;;;;5045070;28;20125;-78
2021/12/29 01:43:05;;;;;;;19.23;5.78;;;6.30;99.90;;;;;;5053180;28;20037;-77
2021/12/29 01:45:32;;;;;;;8.55;4.65;;;6.30;99.90;;;;;;5050833;28;20038;-77
2021/12/29 01:47:59;;;;;;;10.80;4.95;;;6.30;99.90;;;;;;5035208;28;20037;-78
2021/12/29 01:50:25;;;;;;;11.48;5.63;;;6.30;99.90;;;;;;5047046;28;20045;-77
2021/12/29 01:52:56;;;;;;;8.98;3.95;;;6.40;99.90;;;;;;5046553;28;20415;-77
2021/12/29 01:55:25;;;;;;;9.93;4.63;;;6.40;99.90;;;;;;5053320;28;20052;-78
2021/12/29 01:57:52;;;;;;;7.18;5.28;;;6.40;99.90;;;;;;5053036;28;20128;-77
2021/12/29 02:00:20;;;;;;;13.05;5.07;;;6.00;99.90;;;;;;5048920;28;20056;-78
2021/12/29 02:02:46;;;;;;;7.63;4.55;;;6.50;99.90;;;;;;5051223;28;20514;-78
2021/12/29 02:05:11;;;;;;;;;;;6.50;99.90;;;;;;5032652;28;20136;-78
2021/12/29 02:07:38;;;;;;;10.68;4.40;;;6.50;99.90;;;;;;5033373;28;20362;-77
2021/12/29 02:10:05;;;;;;;6.18;4.03;;;6.50;99.90;;;;;;5030998;28;20056;-78
2021/12/29 02:12:32;;;;;;;11.77;5.50;;;6.50;99.90;;;;;;5046953;28;20053;-78
2021/12/29 02:14:58;;;;;;;9.70;5.32;;;6.50;99.90;;;;;;5033774;28;20090;-78
2021/12/29 02:17:24;;;;;;;9.63;5.05;;;6.50;99.90;;;;;;5046593;28;20075;-77
2021/12/29 02:19:51;;;;;;;13.00;6.05;;;6.50;99.90;;;;;;5047985;28;20069;-77
2021/12/29 02:27:52;;;;;;;12.27;5.57;;;6.50;99.90;;;;;;5047812;28;20094;-77
2021/12/29 02:30:22;;;;;;;11.60;7.05;;;6.50;99.90;;;;;;5044829;28;20043;-78
2021/12/29 02:32:49;;;;;;;10.85;5.40;;;6.50;99.90;;;;;;5051638;28;20052;-77
2021/12/29 02:35:16;;;;;;;8.93;6.10;;;6.50;99.90;;;;;;5053546;28;20052;-78
2021/12/29 02:37:42;;;;;;;9.13;5.30;;;6.50;99.90;;;;;;5046370;28;20096;-75
2021/12/29 02:40:09;;;;;;;7.30;4.40;;;6.60;99.90;;;;;;5051292;28;20079;-78
2021/12/29 02:42:40;;;;;;;8.93;4.57;;;6.60;99.90;;;;;;5025563;28;20053;-78
2021/12/29 02:45:09;;;;;;;4.80;2.42;;;6.60;99.90;;;;;;5051550;28;20097;-78
2021/12/29 02:47:34;;;;;;;7.57;4.72;;;6.60;99.90;;;;;;5049200;28;20040;-77
2021/12/29 02:50:00;;;;;;;6.32;3.85;;;6.60;99.90;;;;;;5049970;28;20449;-78
2021/12/29 02:52:26;;;;;;;7.13;4.07;;;6.70;99.90;;;;;;5051385;28;20475;-77
2021/12/29 02:54:52;;;;;;;7.30;3.05;;;6.70;99.90;;;;;;5048581;28;20033;-77
2021/12/29 02:57:18;;;;;;;;;;;6.70;99.90;;;;;;5051843;28;20375;-77
2021/12/29 02:59:44;;;;;;;4.93;3.45;;;6.70;99.90;;;;;;5048332;28;19935;-77
2021/12/29 03:02:10;;;;;;;6.03;2.92;;;6.80;99.90;;;;;;5048250;28;20364;-76
2021/12/29 03:04:35;;;;;;;5.47;3.85;;;6.70;99.90;;;;;;5037228;28;20102;-77
2021/12/29 03:07:01;;;;;;;6.45;4.28;;;6.80;99.90;;;;;;5046615;28;20119;-77
2021/12/29 03:09:27;;;;;;;7.72;5.07;;;6.70;99.90;;;;;;5032412;28;20073;-77
2021/12/29 03:11:53;;;;;;;6.25;3.42;;;6.80;99.90;;;;;;5039024;28;20148;-77
2021/12/29 03:14:20;;;;;;;5.25;3.10;;;6.80;99.90;;;;;;5078969;28;20044;-77
2021/12/29 03:16:46;;;;;;;4.55;3.10;;;6.80;99.90;;;;;;5050616;28;20041;-77
2021/12/29 03:19:11;;;;;;;13.93;4.95;;;6.80;99.90;;;;;;5034156;28;20502;-77
2021/12/29 03:21:37;;;;;;;10.20;3.63;;;6.80;99.90;;;;;;5030030;28;20057;-77
2021/12/29 03:24:05;;;;;;;6.63;4.35;;;6.70;99.90;;;;;;5028332;28;20094;-77
2021/12/29 03:26:31;;;;;;;8.98;4.05;;;6.80;99.90;;;;;;5046858;28;20107;-77
2021/12/29 03:28:57;;;;;;;;;;;6.80;99.90;;;;;;5049548;28;20124;-76
2021/12/29 03:31:32;;;;;;;13.40;5.93;;;6.80;99.90;;;;;;5023270;28;19931;-76
2021/12/29 03:33:58;;;;;;;10.68;5.55;;;6.90;99.90;;;;;;5032767;28;20048;-77
2021/12/29 03:36:23;;;;;;;9.55;4.03;;;6.90;99.90;;;;;;5048287;28;20041;-77
2021/12/29 03:38:49;;;;;;;7.07;3.90;;;6.90;99.90;;;;;;5047861;28;20144;-77
2021/12/29 03:41:17;;;;;;;9.80;5.50;;;6.90;99.90;;;;;;5028984;28;20470;-76
2021/12/29 03:43:44;;;;;;;8.05;4.43;;;6.90;99.90;;;;;;5022949;28;20090;-77
2021/12/29 03:46:11;;;;;;;12.93;6.22;;;6.90;99.90;;;;;;5033376;28;20044;-77
2021/12/29 03:48:39;;;;;;;11.32;4.75;;;6.90;99.90;;;;;;5032889;28;20032;-77
2021/12/29 03:51:06;;;;;;;6.53;4.60;;;6.90;99.90;;;;;;5029220;28;20038;-76
2021/12/29 03:53:33;;;;;;;9.30;5.78;;;6.80;99.90;;;;;;5047569;28;20037;-77
2021/12/29 03:55:59;;;;;;;8.30;4.03;;;6.90;99.90;;;;;;5046171;28;20497;-77
2021/12/29 03:58:26;;;;;;;10.63;5.88;;;6.80;99.90;;;;;;5045125;28;20079;-77
2021/12/29 04:00:56;;;;;;;9.15;5.72;;;6.90;99.90;;;;;;5029268;28;20427;-77
2021/12/29 04:03:22;;;;;;;12.05;5.57;;;6.90;99.90;;;;;;5049809;28;20037;-77
2021/12/29 04:05:48;;;;;;;7.13;4.40;;;6.90;99.90;;;;;;5051298;28;20052;-77
2021/12/29 04:08:14;;;;;;;11.70;4.13;;;6.90;99.90;;;;;;5049319;28;20052;-76
2021/12/29 04:10:40;;;;;;;16.50;4.72;;;6.90;99.90;;;;;;5032146;28;20534;-76
2021/12/29 04:13:06;;;;;;;13.32;6.40;;;6.90;99.90;;;;;;5046681;28;20183;-77
2021/12/29 04:15:33;;;;;;;;;;;6.90;99.90;;;;;;5043367;28;20116;-77
2021/12/29 04:18:02;;;;;;;12.68;6.55;;;6.90;99.90;;;;;;5042081;28;19921;-77
2021/12/29 04:23:17;;;;;;;6.63;4.15;;;7.00;99.90;;;;;;5041431;28;20049;-77
2021/12/29 04:25:48;;;;;;;5.72;4.25;;;7.00;99.90;;;;;;5045499;28;20053;-77
2021/12/29 04:28:20;;;;;;;7.57;4.13;;;7.10;99.90;;;;;;5026119;28;20056;-77
2021/12/29 04:30:50;;;;;;;7.88;4.70;;;7.00;99.90;;;;;;5047370;28;20060;-77
2021/12/29 04:33:17;;;;;;;7.05;3.92;;;7.00;99.90;;;;;;5077800;28;20105;-77
2021/12/29 04:35:45;;;;;;;12.18;5.32;;;7.00;99.90;;;;;;5047666;28;20405;-77
2021/12/29 04:38:10;;;;;;;9.38;6.28;;;7.00;99.90;;;;;;5045608;28;20060;-77
2021/12/29 04:40:36;;;;;;;5.90;4.25;;;7.00;99.90;;;;;;5049507;28;20045;-76
2021/12/29 04:43:03;;;;;;;7.75;5.05;;;7.00;99.90;;;;;;5044617;28;20033;-77
2021/12/29 04:45:29;;;;;;;12.02;5.78;;;7.00;99.90;;;;;;5074056;28;20458;-77
2021/12/29 04:47:55;;;;;;;12.27;5.50;;;7.00;99.90;;;;;;5059453;28;20048;-77
2021/12/29 04:50:27;;;;;;;9.75;6.50;;;7.00;99.90;;;;;;5029723;28;20045;-77
2021/12/29 04:52:57;;;;;;;7.57;5.20;;;7.00;99.90;;;;;;5039868;28;20033;-77
2021/12/29 04:55:24;;;;;;;13.52;5.15;;;7.00;99.90;;;;;;5052391;28;20051;-76
2021/12/29 04:57:50;;;;;;;9.18;4.97;;;7.00;99.90;;;;;;5051598;28;20090;-77
2021/12/29 05:00:18;;;;;;;9.40;4.85;;;7.00;99.90;;;;;;5033700;28;20372;-77
2021/12/29 05:02:44;;;;;;;13.77;5.00;;;7.00;99.90;;;;;;5053488;28;20045;-76
2021/12/29 05:05:38;;;;;;;10.20;5.93;;;7.00;99.90;;;;;;5053198;28;20117;-76
2021/12/29 05:10:51;;;;;;;5.63;4.57;;;7.00;99.90;;;;;;5055840;28;20049;-77
2021/12/29 05:13:18;;;;;;;12.43;5.78;;;7.00;99.90;;;;;;5052967;28;20091;-77
2021/12/29 05:15:43;;;;;;;10.23;5.88;;;7.00;99.90;;;;;;5054681;28;20044;-76
2021/12/29 05:18:10;;;;;;;10.02;5.72;;;7.00;99.90;;;;;;5047190;28;20045;-77
2021/12/29 05:20:36;;;;;;;8.32;4.72;;;7.10;99.90;;;;;;5033381;28;20094;-77
2021/12/29 05:23:02;;;;;;;11.43;5.95;;;7.00;99.90;;;;;;5050115;28;20080;-77
2021/12/29 05:25:28;;;;;;;11.90;4.28;;;7.00;99.90;;;;;;5047365;28;20033;-77
2021/12/29 05:27:54;;;;;;;6.30;4.85;;;7.10;99.90;;;;;;5056812;28;20029;-77
2021/12/29 05:30:21;;;;;;;15.80;5.40;;;7.00;99.90;;;;;;5047817;28;20530;-77
2021/12/29 05:32:47;;;;;;;9.10;4.65;;;7.00;99.90;;;;;;5015913;28;20228;-77
2021/12/29 05:35:14;;;;;;;9.77;5.07;;;7.70;99.90;;;;;;5046096;28;20133;-77
2021/12/29 05:37:40;;;;;;;6.75;4.75;;;6.90;99.90;;;;;;5035804;28;20037;-77
2021/12/29 05:40:07;;;;;;;7.28;3.85;;;7.00;99.90;;;;;;5032810;28;20049;-78
2021/12/29 05:42:35;;;;;;;11.43;3.88;;;7.00;99.90;;;;;;5030936;28;20079;-78
2021/12/29 05:45:07;;;;;;;8.50;4.85;;;7.00;99.90;;;;;;5049193;28;20433;-78
2021/12/29 05:47:34;;;;;;;10.73;4.53;;;7.00;99.90;;;;;;5027756;28;20124;-78
2021/12/29 05:50:00;;;;;;;11.43;5.85;;;7.00;99.90;;;;;;5043997;28;20475;-78
2021/12/29 05:52:26;;;;;;;9.32;5.13;;;7.00;99.90;;;;;;5016048;28;20041;-78
2021/12/29 05:54:51;;;;;;;10.45;4.95;;;7.00;99.90;;;;;;5045723;28;20044;-79
2021/12/29 05:57:17;;;;;;;6.40;5.15;;;7.10;99.90;;;;;;5033283;28;20494;-78
2021/12/29 05:59:43;;;;;;;17.83;6.45;;;7.10;99.90;;;;;;5016857;28;20052;-78
2021/12/29 06:02:09;;;;;;;11.52;5.18;;;7.10;99.90;;;;;;5014565;28;20387;-78
2021/12/29 06:04:35;;;;;;;16.13;4.30;;;7.10;99.90;;;;;;5047065;28;20041;-79
2021/12/29 06:07:00;;;;;;;11.35;4.22;;;7.10;99.90;;;;;;5018205;28;20119;-78
2021/12/29 06:09:26;;;;;;;7.10;4.45;;;7.10;99.90;;;;;;5078232;28;20060;-77
2021/12/29 06:11:52;;;;;;;5.60;3.90;;;7.10;99.90;;;;;;5027441;28;20094;-77
2021/12/29 06:14:23;;;;;;;9.27;5.50;;;7.20;99.90;;;;;;5033059;28;20376;-78
2021/12/29 06:16:49;;;;;;;7.20;4.90;;;7.20;99.90;;;;;;5014540;28;20048;-77
2021/12/29 06:19:15;;;;;;;14.63;6.00;;;7.10;99.90;;;;;;5027369;28;20045;-78
2021/12/29 06:21:41;;;;;;;10.60;4.43;;;7.20;99.90;;;;;;5045046;28;20480;-78
2021/12/29 06:24:07;;;;;;;;;;;7.10;99.90;;;;;;5046457;28;20056;-77
2021/12/29 06:26:36;;;;;;;7.60;5.28;;;7.10;99.90;;;;;;5043504;28;19917;-77
2021/12/29 06:29:02;;;;;;;6.85;4.78;;;7.10;99.90;;;;;;5024975;28;20505;-77
2021/12/29 06:31:28;;;;;;;10.65;5.63;;;7.10;99.90;;;;;;5031741;28;20052;-78
2021/12/29 06:33:53;;;;;;;8.82;4.70;;;7.10;99.90;;;;;;5012328;28;20037;-77
2021/12/29 06:36:20;;;;;;;8.55;5.18;;;7.10;99.90;;;;;;5046306;28;20041;-78
2021/12/29 06:38:45;;;;;;;;;;;7.10;99.90;;;;;;5030927;28;20328;-78
2021/12/29 06:41:11;;;;;;;14.02;5.82;;;7.10;99.90;;;;;;5048076;28;19928;-78
2021/12/29 06:43:37;;;;;;;13.30;7.57;;;7.10;99.90;;;;;;5047996;28;20037;-78
2021/12/29 06:46:03;;;;;;;14.05;5.75;;;7.10;99.90;;;;;;5048152;28;20545;-79
2021/12/29 06:48:28;;;;;;;9.50;5.20;;;7.10;99.90;;;;;;5036059;28;20098;-79
2021/12/29 06:50:54;;;;;;;7.55;4.85;;;7.10;99.90;;;;;;5031857;28;20054;-79
2021/12/29 06:53:20;;;;;;;8.15;4.78;;;7.10;99.90;;;;;;5049973;28;20114;-78
2021/12/29 06:55:46;;;;;;;14.50;6.38;;;7.10;99.90;;;;;;5033611;28;20041;-79
2021/12/29 06:58:12;;;;;;;10.50;5.85;;;7.10;99.90;;;;;;5030458;28;20103;-79
2021/12/29 07:00:39;;;;;;;8.95;5.43;;;7.20;99.90;;;;;;5032117;28;20048;-79
2021/12/29 07:03:06;;;;;;;7.05;4.97;;;7.10;99.90;;;;;;5033668;28;20129;-79
2021/12/29 07:05:32;;;;;;;10.18;4.65;;;7.10;99.90;;;;;;5032281;28;20130;-79
2021/12/29 07:07:59;;;;;;;11.07;7.03;;;7.20;99.90;;;;;;5017102;28;20037;-79
2021/12/29 07:10:24;;;;;;;;;;;7.10;99.90;;;;;;5043283;28;20372;-78
2021/12/29 07:12:50;;;;;;;11.85;5.68;;;7.20;99.90;;;;;;5035694;28;19921;-79
2021/12/29 07:15:16;;;;;;;10.82;4.40;;;7.10;99.90;;;;;;5050338;28;20040;-79
2021/12/29 07:17:42;;;;;;;;;;;7.10;99.90;;;;;;5048644;28;20403;-79
2021/12/29 07:20:08;;;;;;;9.55;5.55;;;7.10;99.90;;;;;;5047136;28;19924;-79
2021/12/29 07:22:34;;;;;;;;;;;7.10;99.90;;;;;;5032025;28;20053;-79
2021/12/29 07:24:59;;;;;;;9.15;4.97;;;7.20;99.90;;;;;;5049225;28;19923;-79
2021/12/29 07:27:25;;;;;;;9.10;5.25;;;7.10;99.90;;;;;;5050914;28;20123;-79
2021/12/29 07:29:52;;;;;;;8.85;6.05;;;7.10;99.90;;;;;;5032242;28;20110;-79
2021/12/29 07:32:18;;;;;;;10.80;5.72;;;7.10;99.90;;;;;;5017355;28;20045;-79
2021/12/29 07:34:44;;;;;;;;;;;7.10;99.90;;;;;;5050367;28;20068;-80
2021/12/29 07:37:11;;;;;;;9.48;4.57;;;7.10;99.90;;;;;;5029728;28;19959;-79
2021/12/29 07:39:37;;;;;;;12.13;5.88;;;7.10;99.90;;;;;;5043708;28;20494;-79
2021/12/29 07:42:03;;;;;;;11.85;4.47;;;7.20;99.90;;;;;;5055608;28;20076;-79
2021/12/29 07:44:29;;;;;;;10.07;5.55;;;7.10;99.90;;;;;;5031772;28;20399;-80
2021/12/29 07:46:57;;;;;;;7.40;5.07;;;7.10;99.90;;;;;;5032468;28;20041;-79
2021/12/29 07:49:23;;;;;;;8.77;4.70;;;7.10;99.90;;;;;;5043457;28;20393;-78
2021/12/29 07:51:49;;;;;;;;;;;7.10;99.90;;;;;;5051887;28;20125;-79
2021/12/29 07:54:15;;;;;;;17.10;5.05;;;7.10;99.90;;;;;;5046458;28;20342;-79
2021/12/29 07:56:42;;;;;;;15.95;4.78;;;7.20;99.90;;;;;;5050220;28;20033;-79
2021/12/29 07:59:08;;;;;;;9.50;4.25;;;7.10;99.90;;;;;;5044657;28;20053;-79
2021/12/29 08:01:34;;;;;;;8.52;5.10;;;7.40;99.90;;;;;;5034582;28;20045;-79
2021/12/29 08:04:01;;;;;;;12.55;6.68;;;7.20;99.90;;;;;;5028336;28;20399;-79
2021/12/29 08:06:27;;;;;;;6.72;4.25;;;7.20;99.90;;;;;;5032069;28;20501;-80
2021/12/29 08:08:53;;;;;;;;;;;7.20;99.90;;;;;;5042493;28;20045;-79
2021/12/29 08:11:19;;;;;;;8.65;4.40;;;7.20;99.90;;;;;;5062719;28;19969;-79
2021/12/29 08:13:46;;;;;;;7.13;4.80;;;7.20;99.90;;;;;;5027393;28;20064;-79
2021/12/29 08:16:12;;;;;;;12.98;5.40;;;7.20;99.90;;;;;;5024080;28;20040;-79
2021/12/29 08:18:38;;;;;;;6.78;4.95;;;7.30;99.90;;;;;;5065880;28;20063;-78
2021/12/29 08:21:04;;;;;;;;;;;7.30;99.90;;;;;;5030908;28;20064;-79
2021/12/29 08:23:31;;;;;;;11.57;5.07;;;7.30;99.90;;;;;;5048918;28;20354;-79
2021/12/29 08:25:58;;;;;;;6.28;3.80;;;7.30;99.90;;;;;;5048622;28;20076;-79
2021/12/29 08:28:23;;;;;;;9.32;4.70;;;7.30;99.90;;;;;;5031613;28;20033;-79
2021/12/29 08:30:51;;;;;;;8.90;4.20;;;7.30;99.90;;;;;;5047826;28;20496;-80
2021/12/29 08:33:17;;;;;;;6.88;3.50;;;7.30;99.90;;;;;;5022536;28;20478;-79
2021/12/29 08:35:42;;;;;;;7.68;5.00;;;7.30;99.90;;;;;;5013377;28;20044;-79
2021/12/29 08:38:08;;;;;;;5.60;3.75;;;7.30;99.90;;;;;;5046863;28;20120;-79
2021/12/29 08:40:34;;;;;;;9.50;5.13;;;7.40;99.90;;;;;;5049359;28;20045;-80
2021/12/29 08:43:02;;;;;;;7.38;5.03;;;7.40;99.90;;;;;;5030210;28;20072;-80
2021/12/29 08:45:29;;;;;;;16.85;5.00;;;7.40;99.90;;;;;;5049393;28;20094;-80
2021/12/29 08:47:58;;;;;;;8.52;5.28;;;7.40;99.90;;;;;;5032305;28;20040;-79
2021/12/29 08:50:31;;;;;;;7.75;3.95;;;7.40;99.90;;;;;;5008794;28;20080;-79
2021/12/29 08:53:03;;;;;;;10.10;4.40;;;7.40;99.90;;;;;;5047812;28;20064;-79
2021/12/29 08:55:30;;;;;;;12.05;4.80;;;7.40;99.90;;;;;;5056434;28;20048;-79
2021/12/29 08:57:56;;;;;;;12.15;4.10;;;7.40;99.90;;;;;;5047037;28;20494;-80
2021/12/29 09:00:21;;;;;;;6.35;3.67;;;7.40;99.90;;;;;;5021883;28;20045;-77
2021/12/29 09:02:48;;;;;;;14.27;4.65;;;7.40;99.90;;;;;;5040342;28;20040;-78
2021/12/29 09:05:16;;;;;;;;;;;7.40;99.90;;;;;;5024256;28;20037;-76
2021/12/29 09:07:42;;;;;;;5.40;4.47;;;7.40;99.90;;;;;;5066884;28;19916;-77
2021/12/29 09:10:09;;;;;;;14.18;4.95;;;7.50;99.90;;;;;;5044479;28;20041;-78
2021/12/29 09:12:35;;;;;;;9.70;4.80;;;7.50;99.90;;;;;;5024536;28;20049;-76
2021/12/29 09:15:04;;;;;;;9.65;4.00;;;7.50;99.90;;;;;;5048397;28;20112;-78
2021/12/29 09:17:30;;;;;;;11.23;5.18;;;7.50;99.90;;;;;;5046682;28;20050;-77
2021/12/29 09:19:56;;;;;;;;;;;7.50;99.90;;;;;;5031983;28;20084;-75
2021/12/29 09:22:22;;;;;;;11.20;4.85;;;7.50;99.90;;;;;;5022884;28;19962;-77
2021/12/29 09:24:48;;;;;;;6.72;4.05;;;7.50;99.90;;;;;;5029696;28;20045;-77
2021/12/29 09:27:15;;;;;;;9.23;4.30;;;7.60;99.90;;;;;;5031837;28;20047;-76
2021/12/29 09:29:41;;;;;;;11.13;5.03;;;7.60;99.90;;;;;;5047985;28;20053;-77
2021/12/29 09:32:07;;;;;;;10.88;5.45;;;7.60;99.90;;;;;;5041687;28;20045;-76
2021/12/29 09:34:33;;;;;;;7.97;3.83;;;7.60;99.90;;;;;;5045351;28;20744;-77
2021/12/29 09:37:02;;;;;;;6.30;3.85;;;7.60;99.90;;;;;;5063244;28;20045;-79
2021/12/29 09:39:27;;;;;;;6.25;3.50;;;7.60;99.90;;;;;;5047748;28;20477;-78
2021/12/29 09:41:54;;;;;;;8.27;4.10;;;7.60;99.90;;;;;;5046578;28;20040;-78
2021/12/29 09:44:20;;;;;;;11.15;5.68;;;7.60;99.90;;;;;;5035588;28;20045;-78
2021/12/29 09:46:48;;;;;;;9.60;4.15;;;7.70;99.90;;;;;;5046096;28;20090;-77
2021/12/29 09:49:14;;;;;;;5.18;3.72;;;7.60;99.90;;;;;;5033289;28;20044;-76
2021/12/29 09:51:40;;;;;;;8.80;3.38;;;7.70;99.90;;;;;;5055635;28;20084;-78
2021/12/29 09:54:06;;;;;;;5.30;2.90;;;7.70;99.90;;;;;;5018789;28;20437;-77
2021/12/29 09:56:32;;;;;;;7.45;3.10;;;7.70;99.90;;;;;;5048501;28;20116;-79
2021/12/29 09:58:59;;;;;;;5.43;3.38;;;7.70;99.90;;;;;;5048545;28;20032;-76
2021/12/29 10:01:25;;;;;;;6.90;3.80;;;7.80;99.90;;;;;;5043168;28;20156;-77
2021/12/29 10:03:51;;;;;;;6.57;4.03;;;7.70;99.90;;;;;;5050903;28;20098;-79
2021/12/29 10:06:17;;;;;;;6.45;4.00;;;7.80;99.90;;;;;;5017729;28;20532;-79
2021/12/29 10:08:47;;;;;;;9.60;4.05;;;7.80;99.90;;;;;;5051204;28;20045;-80
2021/12/29 10:11:24;;;;;;;9.20;4.15;;;7.80;99.90;;;;;;5052924;28;20060;-79
2021/12/29 10:13:50;;;;;;;7.22;4.15;;;7.80;99.90;;;;;;5047948;28;20055;-81
2021/12/29 10:16:26;;;;;;;7.20;4.22;;;7.80;99.90;;;;;;5051874;28;20083;-80
2021/12/29 10:19:00;;;;;;;11.32;3.08;;;7.80;99.90;;;;;;5051922;28;20092;-80
2021/12/29 10:21:28;;;;;;;7.57;4.80;;;7.90;99.90;;;;;;5050224;28;20167;-80
2021/12/29 10:23:57;;;;;;;7.57;3.97;;;7.90;99.90;;;;;;5038040;28;20115;-81
2021/12/29 10:26:32;;;;;;;9.38;4.38;;;7.90;99.90;;;;;;5031619;28;20045;-79
2021/12/29 10:29:03;;;;;;;6.38;3.17;;;8.00;99.90;;;;;;5032615;28;20045;-79
2021/12/29 10:31:38;;;;;;;9.13;4.28;;;7.90;99.90;;;;;;5048460;28;20037;-79
2021/12/29 10:34:18;;;;;;;8.52;3.88;;;7.90;99.90;;;;;;5049991;28;20041;-80
2021/12/29 10:36:45;;;;;;;7.97;4.15;;;7.90;99.90;;;;;;5034732;28;20095;-79
2021/12/29 10:39:21;;;;;;;6.20;4.03;;;8.00;99.90;;;;;;5045155;28;20095;-80
2021/12/29 10:41:51;;;;;;;7.23;3.80;;;8.00;99.90;;;;;;5039039;28;20049;-79
2021/12/29 10:44:29;;;;;;;9.45;3.97;;;7.90;99.90;;;;;;5069259;28;20045;-79
2021/12/29 10:46:56;;;;;;;8.10;4.22;;;7.90;99.90;;;;;;5046745;28;20477;-80
2021/12/29 10:49:25;;;;;;;6.68;3.63;;;7.90;99.90;;;;;;5030476;28;20047;-77
2021/12/29 10:51:51;;;;;;;7.47;4.18;;;7.90;99.90;;;;;;5049151;28;20047;-78
2021/12/29 10:54:19;;;;;;;8.23;3.35;;;8.00;99.90;;;;;;5052909;28;20045;-77
2021/12/29 10:56:56;;;;;;;5.05;2.30;;;8.00;99.90;;;;;;5065676;28;20122;-77
2021/12/29 10:59:28;;;;;;;7.55;3.63;;;8.00;99.90;;;;;;5051034;28;20048;-78
2021/12/29 11:01:54;;;;;;;6.90;3.83;;;8.00;99.90;;;;;;5037712;28;20049;-77
2021/12/29 11:04:20;;;;;;;7.63;2.60;;;8.10;99.90;;;;;;5030348;28;20041;-78
2021/12/29 11:06:49;;;;;;;9.07;3.58;;;8.10;99.90;;;;;;5047316;28;20056;-77
2021/12/29 11:09:32;;;;;;;4.05;3.13;;;8.10;99.90;;;;;;5045863;28;20055;-78
2021/12/29 11:12:10;;;;;;;7.13;4.43;;;8.10;99.90;;;;;;5043238;28;20079;-79
2021/12/29 11:14:42;;;;;;;7.90;4.32;;;8.10;99.90;;;;;;5050376;28;20057;-79
2021/12/29 11:17:12;;;;;;;5.85;2.90;;;8.10;99.90;;;;;;5062618;28;20049;-78
2021/12/29 11:19:44;;;;;;;10.15;3.85;;;8.10;99.90;;;;;;5047681;28;20103;-79
2021/12/29 11:22:11;;;;;;;4.65;3.40;;;8.10;99.90;;;;;;5034952;28;20124;-77
2021/12/29 11:24:38;;;;;;;10.95;4.57;;;8.00;99.90;;;;;;5032924;28;20274;-78
2021/12/29 11:27:16;;;;;;;5.43;3.63;;;8.00;99.90;;;;;;5031470;28;20046;-79
2021/12/29 11:30:20;;;;;;;2.88;2.15;;;8.00;99.90;;;;;;5071991;28;20045;-79
2021/12/29 11:32:47;;;;;;;4.10;2.03;;;8.10;99.90;;;;;;4991899;28;20088;-78
2021/12/29 11:35:17;;;;;;;5.80;2.80;;;8.00;99.90;;;;;;4977527;28;20037;-79
2021/12/29 11:37:45;;;;;;;4.00;2.65;;;8.00;99.90;;;;;;5012094;28;20087;-79
2021/12/29 11:40:13;;;;;;;5.53;3.90;;;8.00;99.90;;;;;;5032168;28;20037;-79
2021/12/29 11:42:39;;;;;;;11.82;3.72;;;8.10;99.90;;;;;;5032460;28;20088;-78
2021/12/29 11:45:07;;;;;;;4.75;2.58;;;8.10;99.90;;;;;;5029120;28;20417;-77
2021/12/29 11:47:33;;;;;;;4.32;2.80;;;8.10;99.90;;;;;;5026785;28;20037;-79
2021/12/29 11:49:58;;;;;;;3.20;2.60;;;8.10;99.90;;;;;;5026305;28;20043;-77
2021/12/29 11:53:01;;;;;;;3.95;2.25;;;8.20;99.90;;;;;;5032971;28;20139;-79
2021/12/29 11:55:31;;;;;;;3.88;2.83;;;8.10;99.90;;;;;;5030563;28;20076;-79
2021/12/29 11:58:18;;;;;;;5.55;3.60;;;8.20;99.90;;;;;;5040460;28;20518;-77
2021/12/29 12:01:08;;;;;;;2.08;1.75;;;8.10;99.90;;;;;;5044934;28;20041;-76
2021/12/29 12:03:44;;;;;;;4.15;3.03;;;8.20;99.90;;;;;;5047503;28;20033;-76
2021/12/29 12:06:35;;;;;;;6.18;3.03;;;8.20;99.90;;;;;;5054064;28;20559;-77
2021/12/29 12:09:13;;;;;;;5.30;2.95;;;8.20;99.90;;;;;;5047268;28;20052;-76
2021/12/29 12:12:03;;;;;;;9.20;2.72;;;8.20;99.90;;;;;;5031229;28;20401;-78
2021/12/29 12:14:31;;;;;;;6.53;3.60;;;8.00;99.90;;;;;;5044234;28;20037;-79
2021/12/29 12:17:16;;;;;;;6.82;4.20;;;8.30;99.90;;;;;;5078014;28;20048;-77
2021/12/29 12:19:43;;;;;;;5.78;3.05;;;8.30;99.90;;;;;;5063117;28;20103;-77
2021/12/29 12:22:14;;;;;;;9.45;4.22;;;8.30;99.90;;;;;;5027549;28;20114;-80
2021/12/29 12:24:55;;;;;;;5.38;3.55;;;8.30;99.90;;;;;;5045164;28;20037;-82
2021/12/29 12:27:42;;;;;;;5.55;3.17;;;8.30;99.90;;;;;;5077824;28;20405;-78
2021/12/29 12:30:21;;;;;;;6.77;3.63;;;8.30;99.90;;;;;;5027479;28;20049;-80
2021/12/29 12:32:53;;;;;;;3.97;2.85;;;8.30;99.90;;;;;;5049592;28;20039;-78
2021/12/29 12:35:48;;;;;;;9.38;2.42;;;8.30;99.90;;;;;;5033455;28;20449;-78
2021/12/29 12:38:21;;;;;;;3.67;3.25;;;8.30;99.90;;;;;;5042266;28;20037;-81
2021/12/29 12:41:05;;;;;;;4.93;2.67;;;8.30;99.90;;;;;;5044958;28;20125;-80
2021/12/29 12:43:31;;;;;;;6.18;2.72;;;8.30;99.90;;;;;;5044070;28;20711;-82
2021/12/29 12:45:57;;;;;;;4.50;2.47;;;8.30;99.90;;;;;;5045996;28;20055;-82
2021/12/29 12:48:26;;;;;;;;;;;8.30;99.90;;;;;;5040793;28;20045;-79
2021/12/29 12:50:52;;;;;;;9.27;2.80;;;8.30;99.90;;;;;;5069183;28;20378;-78
2021/12/29 12:53:28;;;;;;;;;;;8.30;99.90;;;;;;5040503;28;20067;-79
2021/12/29 12:55:56;;;;;;;2.67;1.67;;;8.30;99.90;;;;;;5041154;28;20019;-80
2021/12/29 12:58:25;;;;;;;2.53;1.90;;;8.30;99.90;;;;;;5024390;28;20048;-79
2021/12/29 13:01:00;;;;;;;3.28;2.45;;;8.30;99.90;;;;;;5064394;28;20390;-78
2021/12/29 13:03:27;;;;;;;3.92;2.05;;;8.30;99.90;;;;;;5046122;28;20548;-79
2021/12/29 13:05:58;;;;;;;1.35;0.98;;;8.20;99.90;;;;;;5047438;28;20471;-80
2021/12/29 13:08:30;;;;;;;6.10;2.97;;;8.20;99.90;;;;;;5042605;28;20075;-77
2021/12/29 13:11:16;;;;;;;3.85;2.30;;;8.20;99.90;;;;;;5028246;28;20052;-77
2021/12/29 13:13:49;;;;;;;7.78;2.10;;;8.20;99.90;;;;;;5048628;28;20029;-78
2021/12/29 13:16:18;;;;;;;2.35;1.77;;;8.20;99.90;;;;;;5047924;28;20120;-78